sensor_id;sensor_type;location;lat;lon;timestamp;P1;durP1;ratioP1;P2;durP2;ratioP2
56653;SDS011;45096;52.302;4.634;2022-12-13T00:01:08;14.63;;;9.77;;
56653;SDS011;45096;52.302;4.634;2022-12-13T00:03:34;16.33;;;11.40;;
56653;SDS011;45096;52.302;4.634;2022-12-13T00:05:59;16.07;;;9.83;;
56653;SDS011;45096;52.302;4.634;2022-12-13T00:08:28;20.10;;;10.50;;
56653;SDS011;45096;52.302;4.634;2022-12-13T00:10:57;15.23;;;9.97;;
56653;SDS011;45096;52.302;4.634;2022-12-13T00:13:24;13.77;;;9.93;;
56653;SDS011;45096;52.302;4.634;2022-12-13T00:15:54;16.97;;;10.17;;
56653;SDS011;45096;52.302;4.634;2022-12-13T00:18:20;20.50;;;11.27;;
56653;SDS011;45096;52.302;4.634;2022-12-13T00:20:45;19.93;;;9.90;;
56653;SDS011;45096;52.302;4.634;2022-12-13T00:23:10;17.90;;;11.10;;
56653;SDS011;45096;52.302;4.634;2022-12-13T00:25:36;20.10;;;11.47;;
56653;SDS011;45096;52.302;4.634;2022-12-13T00:28:01;18.83;;;10.90;;
56653;SDS011;45096;52.302;4.634;2022-12-13T00:30:28;15.20;;;10.20;;
56653;SDS011;45096;52.302;4.634;2022-12-13T00:32:54;18.00;;;10.83;;
56653;SDS011;45096;52.302;4.634;2022-12-13T00:35:20;19.77;;;11.10;;
56653;SDS011;45096;52.302;4.634;2022-12-13T00:37:45;15.87;;;10.17;;
56653;SDS011;45096;52.302;4.634;2022-12-13T00:40:11;15.43;;;10.77;;
56653;SDS011;45096;52.302;4.634;2022-12-13T00:42:36;16.57;;;10.53;;
56653;SDS011;45096;52.302;4.634;2022-12-13T00:45:02;12.93;;;8.77;;
56653;SDS011;45096;52.302;4.634;2022-12-13T00:47:29;18.70;;;10.17;;
56653;SDS011;45096;52.302;4.634;2022-12-13T00:49:54;16.23;;;10.20;;
56653;SDS011;45096;52.302;4.634;2022-12-13T00:52:20;16.40;;;9.70;;
56653;SDS011;45096;52.302;4.634;2022-12-13T00:54:45;15.83;;;9.93;;
56653;SDS011;45096;52.302;4.634;2022-12-13T00:57:11;16.17;;;9.23;;
56653;SDS011;45096;52.302;4.634;2022-12-13T00:59:36;18.30;;;10.60;;
56653;SDS011;45096;52.302;4.634;2022-12-13T01:02:01;19.03;;;10.00;;
56653;SDS011;45096;52.302;4.634;2022-12-13T01:04:28;20.50;;;11.37;;
56653;SDS011;45096;52.302;4.634;2022-12-13T01:06:54;19.80;;;11.03;;
56653;SDS011;45096;52.302;4.634;2022-12-13T01:09:20;18.53;;;10.90;;
56653;SDS011;45096;52.302;4.634;2022-12-13T01:11:47;18.30;;;9.43;;
56653;SDS011;45096;52.302;4.634;2022-12-13T01:14:13;17.07;;;10.03;;
56653;SDS011;45096;52.302;4.634;2022-12-13T01:16:39;14.97;;;9.77;;
56653;SDS011;45096;52.302;4.634;2022-12-13T01:19:04;17.50;;;10.90;;
56653;SDS011;45096;52.302;4.634;2022-12-13T01:21:31;22.10;;;11.20;;
56653;SDS011;45096;52.302;4.634;2022-12-13T01:23:59;19.20;;;10.40;;
56653;SDS011;45096;52.302;4.634;2022-12-13T01:26:25;17.23;;;9.50;;
56653;SDS011;45096;52.302;4.634;2022-12-13T01:28:50;21.93;;;11.10;;
56653;SDS011;45096;52.302;4.634;2022-12-13T01:31:16;16.03;;;10.13;;
56653;SDS011;45096;52.302;4.634;2022-12-13T01:33:43;16.27;;;9.27;;
56653;SDS011;45096;52.302;4.634;2022-12-13T01:36:10;16.70;;;9.90;;
56653;SDS011;45096;52.302;4.634;2022-12-13T01:38:38;16.63;;;10.70;;
56653;SDS011;45096;52.302;4.634;2022-12-13T01:41:03;20.90;;;10.73;;
56653;SDS011;45096;52.302;4.634;2022-12-13T01:46:17;14.50;;;9.07;;
56653;SDS011;45096;52.302;4.634;2022-12-13T01:48:43;18.83;;;10.67;;
56653;SDS011;45096;52.302;4.634;2022-12-13T01:51:12;19.47;;;10.50;;
56653;SDS011;45096;52.302;4.634;2022-12-13T01:53:41;17.20;;;9.33;;
56653;SDS011;45096;52.302;4.634;2022-12-13T01:56:08;15.43;;;9.33;;
56653;SDS011;45096;52.302;4.634;2022-12-13T01:58:36;19.07;;;10.90;;
56653;SDS011;45096;52.302;4.634;2022-12-13T02:01:02;16.80;;;9.83;;
56653;SDS011;45096;52.302;4.634;2022-12-13T02:03:28;17.43;;;10.13;;
56653;SDS011;45096;52.302;4.634;2022-12-13T02:05:56;16.73;;;10.33;;
56653;SDS011;45096;52.302;4.634;2022-12-13T02:08:24;16.60;;;10.57;;
56653;SDS011;45096;52.302;4.634;2022-12-13T02:10:51;18.40;;;11.20;;
56653;SDS011;45096;52.302;4.634;2022-12-13T02:13:17;17.30;;;10.07;;
56653;SDS011;45096;52.302;4.634;2022-12-13T02:15:43;15.90;;;8.80;;
56653;SDS011;45096;52.302;4.634;2022-12-13T02:18:20;14.77;;;9.93;;
56653;SDS011;45096;52.302;4.634;2022-12-13T02:20:59;16.77;;;9.57;;
56653;SDS011;45096;52.302;4.634;2022-12-13T02:23:40;17.60;;;8.87;;
56653;SDS011;45096;52.302;4.634;2022-12-13T02:26:22;13.63;;;8.50;;
56653;SDS011;45096;52.302;4.634;2022-12-13T02:29:06;16.03;;;9.27;;
56653;SDS011;45096;52.302;4.634;2022-12-13T02:31:44;16.33;;;9.63;;
56653;SDS011;45096;52.302;4.634;2022-12-13T02:34:13;12.03;;;8.57;;
56653;SDS011;45096;52.302;4.634;2022-12-13T02:36:43;12.27;;;9.10;;
56653;SDS011;45096;52.302;4.634;2022-12-13T02:39:14;16.47;;;8.53;;
56653;SDS011;45096;52.302;4.634;2022-12-13T02:41:44;13.30;;;8.43;;
56653;SDS011;45096;52.302;4.634;2022-12-13T02:44:13;14.27;;;8.93;;
56653;SDS011;45096;52.302;4.634;2022-12-13T02:46:45;18.03;;;9.17;;
56653;SDS011;45096;52.302;4.634;2022-12-13T02:49:12;17.10;;;10.43;;
56653;SDS011;45096;52.302;4.634;2022-12-13T02:51:38;12.93;;;8.83;;
56653;SDS011;45096;52.302;4.634;2022-12-13T02:54:03;13.60;;;8.53;;
56653;SDS011;45096;52.302;4.634;2022-12-13T02:56:29;16.17;;;9.27;;
56653;SDS011;45096;52.302;4.634;2022-12-13T02:58:54;16.60;;;9.23;;
56653;SDS011;45096;52.302;4.634;2022-12-13T03:01:25;16.07;;;8.90;;
56653;SDS011;45096;52.302;4.634;2022-12-13T03:04:00;14.03;;;9.20;;
56653;SDS011;45096;52.302;4.634;2022-12-13T03:06:33;14.33;;;8.33;;
56653;SDS011;45096;52.302;4.634;2022-12-13T03:09:11;13.00;;;8.53;;
56653;SDS011;45096;52.302;4.634;2022-12-13T03:11:49;17.03;;;8.80;;
56653;SDS011;45096;52.302;4.634;2022-12-13T03:14:29;14.47;;;8.77;;
56653;SDS011;45096;52.302;4.634;2022-12-13T03:16:57;17.27;;;9.37;;
56653;SDS011;45096;52.302;4.634;2022-12-13T03:19:26;15.67;;;9.60;;
56653;SDS011;45096;52.302;4.634;2022-12-13T03:21:51;13.03;;;8.30;;
56653;SDS011;45096;52.302;4.634;2022-12-13T03:24:17;15.07;;;9.60;;
56653;SDS011;45096;52.302;4.634;2022-12-13T03:26:44;13.40;;;9.07;;
56653;SDS011;45096;52.302;4.634;2022-12-13T03:29:09;14.03;;;9.40;;
56653;SDS011;45096;52.302;4.634;2022-12-13T03:31:35;15.97;;;9.17;;
56653;SDS011;45096;52.302;4.634;2022-12-13T03:34:00;14.63;;;8.93;;
56653;SDS011;45096;52.302;4.634;2022-12-13T03:36:27;15.83;;;9.50;;
56653;SDS011;45096;52.302;4.634;2022-12-13T03:38:52;15.27;;;9.43;;
56653;SDS011;45096;52.302;4.634;2022-12-13T03:41:19;18.63;;;9.97;;
56653;SDS011;45096;52.302;4.634;2022-12-13T03:43:47;17.97;;;10.23;;
56653;SDS011;45096;52.302;4.634;2022-12-13T03:46:12;16.97;;;9.77;;
56653;SDS011;45096;52.302;4.634;2022-12-13T03:48:38;14.47;;;8.77;;
56653;SDS011;45096;52.302;4.634;2022-12-13T03:51:03;17.17;;;9.50;;
56653;SDS011;45096;52.302;4.634;2022-12-13T03:53:30;12.40;;;8.60;;
56653;SDS011;45096;52.302;4.634;2022-12-13T03:55:56;12.17;;;8.60;;
56653;SDS011;45096;52.302;4.634;2022-12-13T03:58:22;16.13;;;9.60;;
56653;SDS011;45096;52.302;4.634;2022-12-13T04:00:47;18.53;;;8.67;;
56653;SDS011;45096;52.302;4.634;2022-12-13T04:03:13;14.63;;;9.20;;
56653;SDS011;45096;52.302;4.634;2022-12-13T04:05:39;14.93;;;9.07;;
56653;SDS011;45096;52.302;4.634;2022-12-13T04:08:04;16.53;;;9.83;;
56653;SDS011;45096;52.302;4.634;2022-12-13T04:10:31;16.33;;;9.90;;
56653;SDS011;45096;52.302;4.634;2022-12-13T04:12:57;21.63;;;10.43;;
56653;SDS011;45096;52.302;4.634;2022-12-13T04:15:22;14.93;;;8.37;;
56653;SDS011;45096;52.302;4.634;2022-12-13T04:17:47;14.77;;;9.00;;
56653;SDS011;45096;52.302;4.634;2022-12-13T04:20:13;14.27;;;8.97;;
56653;SDS011;45096;52.302;4.634;2022-12-13T04:22:38;15.67;;;8.63;;
56653;SDS011;45096;52.302;4.634;2022-12-13T04:25:04;17.00;;;9.40;;
56653;SDS011;45096;52.302;4.634;2022-12-13T04:27:31;17.20;;;8.57;;
56653;SDS011;45096;52.302;4.634;2022-12-13T04:29:56;14.60;;;8.60;;
56653;SDS011;45096;52.302;4.634;2022-12-13T04:32:22;14.00;;;9.30;;
56653;SDS011;45096;52.302;4.634;2022-12-13T04:34:47;15.90;;;8.83;;
56653;SDS011;45096;52.302;4.634;2022-12-13T04:37:13;16.53;;;8.93;;
56653;SDS011;45096;52.302;4.634;2022-12-13T04:39:38;15.70;;;8.27;;
56653;SDS011;45096;52.302;4.634;2022-12-13T04:42:04;15.17;;;8.63;;
56653;SDS011;45096;52.302;4.634;2022-12-13T04:44:31;14.70;;;9.60;;
56653;SDS011;45096;52.302;4.634;2022-12-13T04:46:56;15.67;;;9.37;;
56653;SDS011;45096;52.302;4.634;2022-12-13T04:49:22;16.73;;;9.13;;
56653;SDS011;45096;52.302;4.634;2022-12-13T04:51:47;13.83;;;8.47;;
56653;SDS011;45096;52.302;4.634;2022-12-13T04:54:13;15.63;;;9.30;;
56653;SDS011;45096;52.302;4.634;2022-12-13T04:56:38;14.97;;;9.80;;
56653;SDS011;45096;52.302;4.634;2022-12-13T04:59:03;17.23;;;9.53;;
56653;SDS011;45096;52.302;4.634;2022-12-13T05:01:33;16.77;;;9.23;;
56653;SDS011;45096;52.302;4.634;2022-12-13T05:04:00;12.97;;;8.77;;
56653;SDS011;45096;52.302;4.634;2022-12-13T05:06:26;16.63;;;9.67;;
56653;SDS011;45096;52.302;4.634;2022-12-13T05:08:51;21.67;;;10.47;;
56653;SDS011;45096;52.302;4.634;2022-12-13T05:11:16;17.00;;;8.73;;
56653;SDS011;45096;52.302;4.634;2022-12-13T05:13:42;19.23;;;9.10;;
56653;SDS011;45096;52.302;4.634;2022-12-13T05:16:07;18.40;;;10.20;;
56653;SDS011;45096;52.302;4.634;2022-12-13T05:18:34;16.37;;;9.33;;
56653;SDS011;45096;52.302;4.634;2022-12-13T05:21:00;18.33;;;10.43;;
56653;SDS011;45096;52.302;4.634;2022-12-13T05:23:26;19.33;;;10.80;;
56653;SDS011;45096;52.302;4.634;2022-12-13T05:25:51;15.53;;;9.70;;
56653;SDS011;45096;52.302;4.634;2022-12-13T05:28:17;16.93;;;10.10;;
56653;SDS011;45096;52.302;4.634;2022-12-13T05:30:42;16.43;;;9.43;;
56653;SDS011;45096;52.302;4.634;2022-12-13T05:33:08;15.67;;;9.87;;
56653;SDS011;45096;52.302;4.634;2022-12-13T05:35:35;16.83;;;8.93;;
56653;SDS011;45096;52.302;4.634;2022-12-13T05:38:01;17.57;;;9.40;;
56653;SDS011;45096;52.302;4.634;2022-12-13T05:40:27;17.37;;;9.37;;
56653;SDS011;45096;52.302;4.634;2022-12-13T05:42:54;14.43;;;8.57;;
56653;SDS011;45096;52.302;4.634;2022-12-13T05:45:20;15.60;;;9.10;;
56653;SDS011;45096;52.302;4.634;2022-12-13T05:47:46;17.67;;;9.27;;
56653;SDS011;45096;52.302;4.634;2022-12-13T05:50:11;22.37;;;9.90;;
56653;SDS011;45096;52.302;4.634;2022-12-13T05:52:38;13.37;;;8.73;;
56653;SDS011;45096;52.302;4.634;2022-12-13T05:55:04;13.27;;;9.47;;
56653;SDS011;45096;52.302;4.634;2022-12-13T05:57:30;21.23;;;9.73;;
56653;SDS011;45096;52.302;4.634;2022-12-13T05:59:56;18.70;;;10.00;;
56653;SDS011;45096;52.302;4.634;2022-12-13T06:02:21;14.37;;;8.53;;
56653;SDS011;45096;52.302;4.634;2022-12-13T06:04:47;13.30;;;8.70;;
56653;SDS011;45096;52.302;4.634;2022-12-13T06:07:12;14.07;;;8.43;;
56653;SDS011;45096;52.302;4.634;2022-12-13T06:09:39;18.40;;;9.93;;
56653;SDS011;45096;52.302;4.634;2022-12-13T06:12:05;17.60;;;9.47;;
56653;SDS011;45096;52.302;4.634;2022-12-13T06:14:31;17.67;;;9.73;;
56653;SDS011;45096;52.302;4.634;2022-12-13T06:16:56;18.00;;;8.73;;
56653;SDS011;45096;52.302;4.634;2022-12-13T06:19:22;15.93;;;9.30;;
56653;SDS011;45096;52.302;4.634;2022-12-13T06:21:48;18.20;;;9.40;;
56653;SDS011;45096;52.302;4.634;2022-12-13T06:24:14;14.00;;;9.03;;
56653;SDS011;45096;52.302;4.634;2022-12-13T06:26:41;17.67;;;8.87;;
56653;SDS011;45096;52.302;4.634;2022-12-13T06:29:07;18.27;;;9.63;;
56653;SDS011;45096;52.302;4.634;2022-12-13T06:31:32;15.27;;;9.13;;
56653;SDS011;45096;52.302;4.634;2022-12-13T06:33:59;16.50;;;10.03;;
56653;SDS011;45096;52.302;4.634;2022-12-13T06:36:25;17.03;;;10.67;;
56653;SDS011;45096;52.302;4.634;2022-12-13T06:38:50;18.00;;;9.10;;
56653;SDS011;45096;52.302;4.634;2022-12-13T06:41:16;18.47;;;10.03;;
56653;SDS011;45096;52.302;4.634;2022-12-13T06:43:43;15.63;;;9.43;;
56653;SDS011;45096;52.302;4.634;2022-12-13T06:46:09;13.60;;;8.47;;
56653;SDS011;45096;52.302;4.634;2022-12-13T06:48:35;15.20;;;9.30;;
56653;SDS011;45096;52.302;4.634;2022-12-13T06:51:01;16.07;;;8.83;;
56653;SDS011;45096;52.302;4.634;2022-12-13T06:53:27;12.80;;;8.93;;
56653;SDS011;45096;52.302;4.634;2022-12-13T06:55:52;14.63;;;9.00;;
56653;SDS011;45096;52.302;4.634;2022-12-13T06:58:18;14.47;;;9.53;;
56653;SDS011;45096;52.302;4.634;2022-12-13T07:00:44;18.60;;;9.40;;
56653;SDS011;45096;52.302;4.634;2022-12-13T07:03:10;15.47;;;9.73;;
56653;SDS011;45096;52.302;4.634;2022-12-13T07:05:36;21.90;;;10.47;;
56653;SDS011;45096;52.302;4.634;2022-12-13T07:08:01;11.50;;;8.73;;
56653;SDS011;45096;52.302;4.634;2022-12-13T07:10:27;15.23;;;9.37;;
56653;SDS011;45096;52.302;4.634;2022-12-13T07:12:52;15.80;;;9.60;;
56653;SDS011;45096;52.302;4.634;2022-12-13T07:15:18;19.07;;;9.13;;
56653;SDS011;45096;52.302;4.634;2022-12-13T07:17:44;17.73;;;9.77;;
56653;SDS011;45096;52.302;4.634;2022-12-13T07:20:12;18.30;;;9.13;;
56653;SDS011;45096;52.302;4.634;2022-12-13T07:22:38;14.03;;;9.80;;
56653;SDS011;45096;52.302;4.634;2022-12-13T07:25:03;16.97;;;9.57;;
56653;SDS011;45096;52.302;4.634;2022-12-13T07:27:29;17.70;;;9.90;;
56653;SDS011;45096;52.302;4.634;2022-12-13T07:29:54;17.27;;;9.17;;
56653;SDS011;45096;52.302;4.634;2022-12-13T07:32:20;16.87;;;9.70;;
56653;SDS011;45096;52.302;4.634;2022-12-13T07:34:46;16.90;;;9.07;;
56653;SDS011;45096;52.302;4.634;2022-12-13T07:37:12;14.37;;;8.83;;
56653;SDS011;45096;52.302;4.634;2022-12-13T07:39:37;15.93;;;9.57;;
56653;SDS011;45096;52.302;4.634;2022-12-13T07:42:03;15.90;;;9.33;;
56653;SDS011;45096;52.302;4.634;2022-12-13T07:44:28;13.57;;;9.17;;
56653;SDS011;45096;52.302;4.634;2022-12-13T07:46:54;20.13;;;9.43;;
56653;SDS011;45096;52.302;4.634;2022-12-13T07:49:19;19.57;;;9.53;;
56653;SDS011;45096;52.302;4.634;2022-12-13T07:51:46;18.23;;;9.60;;
56653;SDS011;45096;52.302;4.634;2022-12-13T07:54:11;15.37;;;9.00;;
56653;SDS011;45096;52.302;4.634;2022-12-13T07:56:37;19.50;;;9.50;;
56653;SDS011;45096;52.302;4.634;2022-12-13T07:59:02;17.77;;;10.40;;
56653;SDS011;45096;52.302;4.634;2022-12-13T08:01:29;18.33;;;10.13;;
56653;SDS011;45096;52.302;4.634;2022-12-13T08:03:55;16.23;;;8.80;;
56653;SDS011;45096;52.302;4.634;2022-12-13T08:06:21;14.63;;;8.97;;
56653;SDS011;45096;52.302;4.634;2022-12-13T08:08:47;14.17;;;8.93;;
56653;SDS011;45096;52.302;4.634;2022-12-13T08:11:13;16.57;;;9.37;;
56653;SDS011;45096;52.302;4.634;2022-12-13T08:13:38;14.07;;;8.37;;
56653;SDS011;45096;52.302;4.634;2022-12-13T08:16:04;12.73;;;8.67;;
56653;SDS011;45096;52.302;4.634;2022-12-13T08:18:31;16.47;;;8.90;;
56653;SDS011;45096;52.302;4.634;2022-12-13T08:20:57;16.50;;;9.93;;
56653;SDS011;45096;52.302;4.634;2022-12-13T08:23:22;13.17;;;8.13;;
56653;SDS011;45096;52.302;4.634;2022-12-13T08:25:50;16.20;;;8.53;;
56653;SDS011;45096;52.302;4.634;2022-12-13T08:28:16;15.37;;;9.73;;
56653;SDS011;45096;52.302;4.634;2022-12-13T08:30:41;12.73;;;8.47;;
56653;SDS011;45096;52.302;4.634;2022-12-13T08:33:07;15.20;;;9.87;;
56653;SDS011;45096;52.302;4.634;2022-12-13T08:35:32;14.70;;;9.23;;
56653;SDS011;45096;52.302;4.634;2022-12-13T08:37:58;17.83;;;9.17;;
56653;SDS011;45096;52.302;4.634;2022-12-13T08:40:23;14.67;;;9.13;;
56653;SDS011;45096;52.302;4.634;2022-12-13T08:42:50;17.50;;;8.97;;
56653;SDS011;45096;52.302;4.634;2022-12-13T08:45:15;16.87;;;10.23;;
56653;SDS011;45096;52.302;4.634;2022-12-13T08:47:41;13.37;;;8.50;;
56653;SDS011;45096;52.302;4.634;2022-12-13T08:50:06;17.00;;;9.83;;
56653;SDS011;45096;52.302;4.634;2022-12-13T08:52:32;15.03;;;9.73;;
56653;SDS011;45096;52.302;4.634;2022-12-13T08:54:58;15.53;;;8.67;;
56653;SDS011;45096;52.302;4.634;2022-12-13T08:57:24;20.17;;;9.60;;
56653;SDS011;45096;52.302;4.634;2022-12-13T08:59:50;12.93;;;8.80;;
56653;SDS011;45096;52.302;4.634;2022-12-13T09:02:16;19.20;;;9.80;;
56653;SDS011;45096;52.302;4.634;2022-12-13T09:04:41;17.20;;;9.50;;
56653;SDS011;45096;52.302;4.634;2022-12-13T09:07:07;16.30;;;9.23;;
56653;SDS011;45096;52.302;4.634;2022-12-13T09:09:32;19.00;;;10.17;;
56653;SDS011;45096;52.302;4.634;2022-12-13T09:11:58;15.47;;;9.20;;
56653;SDS011;45096;52.302;4.634;2022-12-13T09:14:23;14.90;;;9.17;;
56653;SDS011;45096;52.302;4.634;2022-12-13T09:16:50;16.53;;;9.47;;
56653;SDS011;45096;52.302;4.634;2022-12-13T09:19:15;12.63;;;8.80;;
56653;SDS011;45096;52.302;4.634;2022-12-13T09:21:41;13.87;;;8.83;;
56653;SDS011;45096;52.302;4.634;2022-12-13T09:24:06;17.57;;;9.27;;
56653;SDS011;45096;52.302;4.634;2022-12-13T09:26:31;14.97;;;9.83;;
56653;SDS011;45096;52.302;4.634;2022-12-13T09:28:57;17.57;;;9.63;;
56653;SDS011;45096;52.302;4.634;2022-12-13T09:31:22;16.73;;;9.60;;
56653;SDS011;45096;52.302;4.634;2022-12-13T09:33:49;16.50;;;9.87;;
56653;SDS011;45096;52.302;4.634;2022-12-13T09:36:15;14.33;;;9.50;;
56653;SDS011;45096;52.302;4.634;2022-12-13T09:38:41;13.47;;;9.20;;
56653;SDS011;45096;52.302;4.634;2022-12-13T09:41:10;16.53;;;9.33;;
56653;SDS011;45096;52.302;4.634;2022-12-13T09:43:39;19.30;;;9.83;;
56653;SDS011;45096;52.302;4.634;2022-12-13T09:46:07;17.43;;;10.27;;
56653;SDS011;45096;52.302;4.634;2022-12-13T09:48:37;19.23;;;10.10;;
56653;SDS011;45096;52.302;4.634;2022-12-13T09:51:04;16.03;;;9.97;;
56653;SDS011;45096;52.302;4.634;2022-12-13T09:53:29;14.03;;;8.60;;
56653;SDS011;45096;52.302;4.634;2022-12-13T09:55:55;17.00;;;9.67;;
56653;SDS011;45096;52.302;4.634;2022-12-13T09:58:22;15.00;;;9.20;;
56653;SDS011;45096;52.302;4.634;2022-12-13T10:00:50;16.50;;;9.67;;
56653;SDS011;45096;52.302;4.634;2022-12-13T10:03:17;18.87;;;10.10;;
56653;SDS011;45096;52.302;4.634;2022-12-13T10:05:44;18.17;;;9.97;;
56653;SDS011;45096;52.302;4.634;2022-12-13T10:08:14;16.27;;;10.50;;
56653;SDS011;45096;52.302;4.634;2022-12-13T10:10:40;15.43;;;9.53;;
56653;SDS011;45096;52.302;4.634;2022-12-13T10:13:08;16.43;;;9.93;;
56653;SDS011;45096;52.302;4.634;2022-12-13T10:15:39;14.33;;;9.77;;
56653;SDS011;45096;52.302;4.634;2022-12-13T10:18:05;16.73;;;9.47;;
56653;SDS011;45096;52.302;4.634;2022-12-13T10:20:31;14.47;;;8.93;;
56653;SDS011;45096;52.302;4.634;2022-12-13T10:22:57;17.43;;;10.43;;
56653;SDS011;45096;52.302;4.634;2022-12-13T10:25:46;13.60;;;9.07;;
56653;SDS011;45096;52.302;4.634;2022-12-13T10:28:15;16.33;;;10.23;;
56653;SDS011;45096;52.302;4.634;2022-12-13T10:30:41;17.63;;;9.63;;
56653;SDS011;45096;52.302;4.634;2022-12-13T10:33:10;18.23;;;10.70;;
56653;SDS011;45096;52.302;4.634;2022-12-13T10:35:44;15.93;;;9.87;;
56653;SDS011;45096;52.302;4.634;2022-12-13T10:38:26;16.33;;;10.00;;
56653;SDS011;45096;52.302;4.634;2022-12-13T10:40:55;16.73;;;11.30;;
56653;SDS011;45096;52.302;4.634;2022-12-13T10:43:21;16.83;;;9.80;;
56653;SDS011;45096;52.302;4.634;2022-12-13T10:45:55;19.90;;;10.37;;
56653;SDS011;45096;52.302;4.634;2022-12-13T10:48:22;19.03;;;10.40;;
56653;SDS011;45096;52.302;4.634;2022-12-13T10:50:56;18.37;;;10.87;;
56653;SDS011;45096;52.302;4.634;2022-12-13T10:53:22;21.83;;;10.63;;
56653;SDS011;45096;52.302;4.634;2022-12-13T10:55:52;15.60;;;9.40;;
56653;SDS011;45096;52.302;4.634;2022-12-13T10:58:19;15.77;;;10.30;;
56653;SDS011;45096;52.302;4.634;2022-12-13T11:00:45;18.03;;;10.70;;
56653;SDS011;45096;52.302;4.634;2022-12-13T11:03:12;19.97;;;10.57;;
56653;SDS011;45096;52.302;4.634;2022-12-13T11:05:56;15.97;;;9.97;;
56653;SDS011;45096;52.302;4.634;2022-12-13T11:08:26;17.57;;;10.57;;
56653;SDS011;45096;52.302;4.634;2022-12-13T11:10:55;16.33;;;10.57;;
56653;SDS011;45096;52.302;4.634;2022-12-13T11:13:24;17.77;;;9.90;;
56653;SDS011;45096;52.302;4.634;2022-12-13T11:15:55;18.27;;;10.57;;
56653;SDS011;45096;52.302;4.634;2022-12-13T11:18:21;18.97;;;10.50;;
56653;SDS011;45096;52.302;4.634;2022-12-13T11:20:49;20.50;;;11.40;;
56653;SDS011;45096;52.302;4.634;2022-12-13T11:23:20;19.93;;;10.40;;
56653;SDS011;45096;52.302;4.634;2022-12-13T11:25:53;17.37;;;11.03;;
56653;SDS011;45096;52.302;4.634;2022-12-13T11:28:23;17.67;;;10.73;;
56653;SDS011;45096;52.302;4.634;2022-12-13T11:30:59;17.93;;;10.60;;
56653;SDS011;45096;52.302;4.634;2022-12-13T11:33:34;17.07;;;11.10;;
56653;SDS011;45096;52.302;4.634;2022-12-13T11:36:05;20.13;;;10.90;;
56653;SDS011;45096;52.302;4.634;2022-12-13T11:38:37;15.13;;;10.50;;
56653;SDS011;45096;52.302;4.634;2022-12-13T11:41:13;17.87;;;10.40;;
56653;SDS011;45096;52.302;4.634;2022-12-13T11:43:42;20.70;;;10.77;;
56653;SDS011;45096;52.302;4.634;2022-12-13T11:46:12;17.93;;;10.60;;
56653;SDS011;45096;52.302;4.634;2022-12-13T11:48:40;17.77;;;10.83;;
56653;SDS011;45096;52.302;4.634;2022-12-13T11:51:08;19.67;;;11.03;;
56653;SDS011;45096;52.302;4.634;2022-12-13T11:53:37;18.23;;;10.87;;
56653;SDS011;45096;52.302;4.634;2022-12-13T11:56:11;17.17;;;10.40;;
56653;SDS011;45096;52.302;4.634;2022-12-13T11:58:42;17.97;;;10.70;;
56653;SDS011;45096;52.302;4.634;2022-12-13T12:01:11;19.50;;;11.00;;
56653;SDS011;45096;52.302;4.634;2022-12-13T12:03:39;23.10;;;11.47;;
56653;SDS011;45096;52.302;4.634;2022-12-13T12:06:08;20.63;;;11.10;;
56653;SDS011;45096;52.302;4.634;2022-12-13T12:08:39;18.33;;;11.07;;
56653;SDS011;45096;52.302;4.634;2022-12-13T12:11:11;16.77;;;11.03;;
56653;SDS011;45096;52.302;4.634;2022-12-13T12:13:39;22.77;;;12.30;;
56653;SDS011;45096;52.302;4.634;2022-12-13T12:16:11;18.27;;;11.00;;
56653;SDS011;45096;52.302;4.634;2022-12-13T12:18:38;16.70;;;11.33;;
56653;SDS011;45096;52.302;4.634;2022-12-13T12:21:07;18.47;;;10.87;;
56653;SDS011;45096;52.302;4.634;2022-12-13T12:23:41;17.87;;;12.50;;
56653;SDS011;45096;52.302;4.634;2022-12-13T12:26:15;18.53;;;11.27;;
56653;SDS011;45096;52.302;4.634;2022-12-13T12:28:51;21.70;;;12.63;;
56653;SDS011;45096;52.302;4.634;2022-12-13T12:31:27;15.87;;;10.83;;
56653;SDS011;45096;52.302;4.634;2022-12-13T12:33:55;19.70;;;11.70;;
56653;SDS011;45096;52.302;4.634;2022-12-13T12:36:28;18.60;;;11.63;;
56653;SDS011;45096;52.302;4.634;2022-12-13T12:39:11;19.27;;;12.13;;
56653;SDS011;45096;52.302;4.634;2022-12-13T12:42:01;18.40;;;11.33;;
56653;SDS011;45096;52.302;4.634;2022-12-13T12:44:37;21.90;;;12.77;;
56653;SDS011;45096;52.302;4.634;2022-12-13T12:47:12;24.47;;;11.20;;
56653;SDS011;45096;52.302;4.634;2022-12-13T12:49:52;21.47;;;12.60;;
56653;SDS011;45096;52.302;4.634;2022-12-13T12:52:38;19.40;;;13.07;;
56653;SDS011;45096;52.302;4.634;2022-12-13T12:55:09;21.10;;;12.00;;
56653;SDS011;45096;52.302;4.634;2022-12-13T12:57:38;27.93;;;14.93;;
56653;SDS011;45096;52.302;4.634;2022-12-13T13:00:12;21.70;;;13.53;;
56653;SDS011;45096;52.302;4.634;2022-12-13T13:02:40;20.20;;;13.50;;
56653;SDS011;45096;52.302;4.634;2022-12-13T13:05:10;24.27;;;12.93;;
56653;SDS011;45096;52.302;4.634;2022-12-13T13:07:41;23.63;;;13.67;;
56653;SDS011;45096;52.302;4.634;2022-12-13T13:10:09;21.77;;;13.47;;
56653;SDS011;45096;52.302;4.634;2022-12-13T13:12:36;25.00;;;13.63;;
56653;SDS011;45096;52.302;4.634;2022-12-13T13:18:03;21.30;;;12.37;;
56653;SDS011;45096;52.302;4.634;2022-12-13T13:20:28;24.23;;;13.80;;
56653;SDS011;45096;52.302;4.634;2022-12-13T13:22:54;23.67;;;14.60;;
56653;SDS011;45096;52.302;4.634;2022-12-13T13:25:29;20.87;;;13.03;;
56653;SDS011;45096;52.302;4.634;2022-12-13T13:27:59;22.87;;;13.77;;
56653;SDS011;45096;52.302;4.634;2022-12-13T13:30:26;23.37;;;13.60;;
56653;SDS011;45096;52.302;4.634;2022-12-13T13:32:52;22.87;;;13.20;;
56653;SDS011;45096;52.302;4.634;2022-12-13T13:44:17;22.20;;;14.00;;
56653;SDS011;45096;52.302;4.634;2022-12-13T13:47:27;26.20;;;14.10;;
56653;SDS011;45096;52.302;4.634;2022-12-13T13:49:57;24.77;;;13.70;;
56653;SDS011;45096;52.302;4.634;2022-12-13T13:52:27;23.20;;;14.37;;
56653;SDS011;45096;52.302;4.634;2022-12-13T13:58:00;23.27;;;14.00;;
56653;SDS011;45096;52.302;4.634;2022-12-13T14:00:38;25.80;;;14.63;;
56653;SDS011;45096;52.302;4.634;2022-12-13T14:03:40;23.90;;;13.67;;
56653;SDS011;45096;52.302;4.634;2022-12-13T14:15:38;26.60;;;15.40;;
56653;SDS011;45096;52.302;4.634;2022-12-13T14:21:11;25.10;;;14.07;;
56653;SDS011;45096;52.302;4.634;2022-12-13T14:23:44;25.07;;;14.70;;
56653;SDS011;45096;52.302;4.634;2022-12-13T14:26:22;26.97;;;14.40;;
56653;SDS011;45096;52.302;4.634;2022-12-13T14:28:54;24.23;;;15.40;;
56653;SDS011;45096;52.302;4.634;2022-12-13T14:31:22;24.07;;;14.93;;
56653;SDS011;45096;52.302;4.634;2022-12-13T14:33:49;22.90;;;13.87;;
56653;SDS011;45096;52.302;4.634;2022-12-13T14:36:16;26.57;;;15.00;;
56653;SDS011;45096;52.302;4.634;2022-12-13T14:38:42;29.87;;;16.10;;
56653;SDS011;45096;52.302;4.634;2022-12-13T14:41:12;23.30;;;14.30;;
56653;SDS011;45096;52.302;4.634;2022-12-13T14:43:41;22.13;;;14.67;;
56653;SDS011;45096;52.302;4.634;2022-12-13T14:46:07;21.10;;;13.83;;
56653;SDS011;45096;52.302;4.634;2022-12-13T14:48:33;22.00;;;14.30;;
56653;SDS011;45096;52.302;4.634;2022-12-13T14:51:00;21.73;;;14.00;;
56653;SDS011;45096;52.302;4.634;2022-12-13T14:53:26;24.20;;;14.47;;
56653;SDS011;45096;52.302;4.634;2022-12-13T14:56:04;24.53;;;13.90;;
56653;SDS011;45096;52.302;4.634;2022-12-13T14:58:31;25.67;;;14.50;;
56653;SDS011;45096;52.302;4.634;2022-12-13T15:00:57;24.60;;;14.90;;
56653;SDS011;45096;52.302;4.634;2022-12-13T15:03:24;25.40;;;13.93;;